createdAt,value
2019-04-11T00:00:03.759Z,98
2019-04-11T00:01:04.053Z,98.4
2019-04-11T00:02:03.028Z,97
2019-04-11T00:03:03.237Z,95.6
2019-04-11T00:04:04.075Z,95.6
2019-04-11T00:05:04.079Z,94.7
2019-04-11T00:06:03.572Z,93.8
2019-04-11T00:07:03.950Z,94.2
2019-04-11T00:08:03.999Z,94.7
2019-04-11T00:09:03.509Z,95.4
2019-04-11T00:10:04.175Z,94.5
2019-04-11T00:11:03.987Z,93.3
2019-04-11T00:12:03.704Z,93.5
2019-04-11T00:13:30.184Z,94.5
2019-04-11T00:14:03.439Z,96.1
2019-04-11T00:15:04.568Z,97.3
2019-04-11T00:16:04.840Z,97.7
2019-04-11T00:17:03.962Z,97.5
2019-04-11T00:18:03.419Z,97.3
2019-04-11T00:19:03.355Z,96.6
2019-04-11T00:20:04.456Z,95.9
2019-04-11T00:21:03.089Z,96.3
2019-04-11T00:22:03.722Z,95.6
2019-04-11T00:23:03.027Z,95.6
2019-04-11T00:24:03.171Z,96.3
2019-04-11T00:25:03.384Z,96.6
2019-04-11T00:26:02.793Z,96.6
2019-04-11T00:27:02.778Z,96.1
2019-04-11T00:28:03.764Z,96.3
2019-04-11T00:29:04.140Z,95.6
2019-04-11T00:30:04.185Z,96.8
2019-04-11T00:31:02.832Z,96.6
2019-04-11T00:32:13.449Z,96.8
2019-04-11T00:33:03.627Z,98.4
2019-04-11T00:34:04.862Z,98.7
2019-04-11T00:35:03.903Z,99.8
2019-04-11T00:36:04.456Z,99.8
2019-04-11T00:37:03.700Z,100.5
2019-04-11T00:38:03.540Z,101.7
2019-04-11T00:39:03.687Z,102.6
2019-04-11T00:40:04.158Z,103.3
2019-04-11T00:41:03.957Z,102.9
2019-04-11T00:42:04.233Z,104.5
2019-04-11T00:43:03.427Z,103.8
2019-04-11T00:44:03.144Z,105.4
2019-04-11T00:45:03.590Z,104.5
2019-04-11T00:46:04.527Z,105
2019-04-11T00:47:02.999Z,104.5
2019-04-11T00:48:04.096Z,104
2019-04-11T00:49:03.355Z,104
2019-04-11T00:50:05.767Z,103.3
2019-04-11T00:51:03.738Z,102.4
2019-04-11T00:52:04.789Z,103.1
2019-04-11T00:53:03.802Z,102.9
2019-04-11T00:54:04.988Z,102.9
2019-04-11T00:55:05.111Z,104
2019-04-11T00:56:04.288Z,104.3
2019-04-11T00:57:03.023Z,105.2
2019-04-11T00:58:03.686Z,103.8
2019-04-11T00:59:03.149Z,102.6
2019-04-11T01:00:04.906Z,102.6
2019-04-11T01:01:03.933Z,102.2
2019-04-11T01:02:03.165Z,102.2
2019-04-11T01:03:06.652Z,102.2
2019-04-11T01:04:03.589Z,102.6
2019-04-11T01:05:03.789Z,102.4
2019-04-11T01:06:03.907Z,104
2019-04-11T01:07:04.934Z,103.1
2019-04-11T01:08:03.311Z,103.3
2019-04-11T01:09:04.312Z,101.9
2019-04-11T01:10:02.883Z,103.1
2019-04-11T01:11:03.786Z,102.9
2019-04-11T01:12:02.873Z,102.4
2019-04-11T01:13:03.083Z,102.4
2019-04-11T01:14:03.819Z,101.5
2019-04-11T01:15:03.392Z,100.5
2019-04-11T01:16:03.260Z,100.8
2019-04-11T01:17:03.413Z,100.8
2019-04-11T01:18:03.856Z,100.8
2019-04-11T01:19:02.942Z,100.8
2019-04-11T01:20:03.227Z,101.5
2019-04-11T01:21:04.243Z,101
2019-04-11T01:22:02.920Z,100.5
2019-04-11T01:23:03.055Z,99.6
2019-04-11T01:24:04.006Z,98.4
2019-04-11T01:25:04.365Z,98.7
2019-04-11T01:26:03.472Z,98.7
2019-04-11T01:27:03.652Z,98
2019-04-11T01:28:04.793Z,96.6
2019-04-11T01:29:03.439Z,97.5
2019-04-11T01:30:04.229Z,96.1
2019-04-11T01:31:03.444Z,95.9
2019-04-11T01:32:04.502Z,95.9
2019-04-11T01:33:04.739Z,94.9
2019-04-11T01:34:04.509Z,95.2
2019-04-11T01:35:03.347Z,94.9
2019-04-11T01:36:03.151Z,94.9
2019-04-11T01:37:04.013Z,94.9
2019-04-11T01:38:04.240Z,92.4
2019-04-11T01:39:03.261Z,90
2019-04-11T01:40:02.969Z,88.6
2019-04-11T01:41:04.586Z,88.6
2019-04-11T01:42:02.983Z,86.8
2019-04-11T01:43:04.115Z,88.4
2019-04-11T01:44:09.081Z,87.7
2019-04-11T01:45:03.439Z,87.7
2019-04-11T01:46:03.069Z,88.2
2019-04-11T01:47:03.242Z,87.2
2019-04-11T01:48:03.883Z,89.3
2019-04-11T01:49:04.113Z,90
2019-04-11T01:50:03.351Z,90
2019-04-11T01:51:03.322Z,88.6
2019-04-11T01:52:06.640Z,88.6
2019-04-11T01:53:03.303Z,87.5
2019-04-11T01:54:01.884Z,87.5
2019-04-11T01:55:04.172Z,84.9
2019-04-11T01:56:03.303Z,85.1
2019-04-11T01:57:03.700Z,84.7
2019-04-11T01:58:02.819Z,84.7
2019-04-11T01:59:03.065Z,85.1
2019-04-11T02:00:04.114Z,85.6
2019-04-11T02:01:02.763Z,86.3
2019-04-11T02:02:03.642Z,85.6
2019-04-11T02:03:03.577Z,85.1
2019-04-11T02:04:03.861Z,86.8
2019-04-11T02:05:05.086Z,86.8
2019-04-11T02:06:03.489Z,86.1
2019-04-11T02:07:04.789Z,86.1
2019-04-11T02:08:03.538Z,84.2
2019-04-11T02:09:04.117Z,84.4
2019-04-11T02:10:04.527Z,83.7
2019-04-11T02:11:03.571Z,84.9
2019-04-11T02:12:03.881Z,85.6
2019-04-11T02:13:03.821Z,85.4
2019-04-11T02:14:22.333Z,84.9
2019-04-11T02:15:04.194Z,85.4
2019-04-11T02:16:03.461Z,85.4
2019-04-11T02:17:03.363Z,85.1
2019-04-11T02:18:03.576Z,85.1
2019-04-11T02:19:03.861Z,85.4
2019-04-11T02:20:03.054Z,85.6
2019-04-11T02:21:03.435Z,86.3
2019-04-11T02:22:04.311Z,86.8
2019-04-11T02:23:03.126Z,87.9
2019-04-11T02:24:03.909Z,87.9
2019-04-11T02:25:04.083Z,88.2
2019-04-11T02:26:03.285Z,88.4
2019-04-11T02:27:03.250Z,89.1
2019-04-11T02:28:02.963Z,89.1
2019-04-11T02:29:03.726Z,89.1
2019-04-11T02:30:04.885Z,88.2
2019-04-11T02:31:13.883Z,88.2
2019-04-11T02:32:09.760Z,88.9
2019-04-11T02:33:12.135Z,88.2
2019-04-11T02:34:09.032Z,87.2
2019-04-11T02:35:08.824Z,87.2
2019-04-11T02:36:11.617Z,87.2
2019-04-11T02:37:09.347Z,86.5
2019-04-11T02:38:05.175Z,87.9
2019-04-11T02:39:22.181Z,88.6
2019-04-11T02:40:08.256Z,89.3
2019-04-11T02:41:13.778Z,91
2019-04-11T02:42:04.371Z,93.3
2019-04-11T02:43:13.076Z,93.8
2019-04-11T02:46:57.669Z,94
2019-04-11T02:47:32.374Z,94
2019-04-11T02:48:13.616Z,93.3
2019-04-11T02:49:03.582Z,93.3
2019-04-11T02:50:12.446Z,93.3
2019-04-11T02:51:07.818Z,92.4
2019-04-11T02:52:03.605Z,91.7
2019-04-11T02:53:09.345Z,92.8
2019-04-11T02:54:07.904Z,94
2019-04-11T02:55:12.350Z,94.7
2019-04-11T02:56:03.299Z,94.7
2019-04-11T02:57:03.403Z,93.5
2019-04-11T02:58:08.211Z,95.6
2019-04-11T02:59:05.721Z,94.2
2019-04-11T03:00:11.004Z,94.2
2019-04-11T03:01:13.278Z,92.1
2019-04-11T03:02:13.151Z,92.8
2019-04-11T03:03:10.440Z,93.3
2019-04-11T03:04:07.720Z,91.9
2019-04-11T03:05:13.141Z,89.8
2019-04-11T03:06:04.736Z,90.3
2019-04-11T03:07:08.063Z,90.3
2019-04-11T03:08:20.489Z,90.3
2019-04-11T03:09:07.701Z,91.4
2019-04-11T03:10:14.064Z,91.7
2019-04-11T03:11:11.014Z,90.7
2019-04-11T03:12:05.308Z,89.6
2019-04-11T03:13:05.195Z,90.5
2019-04-11T03:14:04.356Z,90.7
2019-04-11T03:16:20.045Z,91
2019-04-11T03:17:06.120Z,90.7
2019-04-11T03:17:36.637Z,90.5
2019-04-11T03:20:15.240Z,89.8
2019-04-11T03:20:49.458Z,89.8
2019-04-11T03:21:24.408Z,88.9
2019-04-11T03:22:03.681Z,89.1
2019-04-11T03:23:19.217Z,89.8
2019-04-11T03:24:11.213Z,89.1
2019-04-11T03:25:08.778Z,88.4
2019-04-11T03:26:11.801Z,88.2
2019-04-11T03:27:12.001Z,88.6
2019-04-11T03:28:27.188Z,89.6
2019-04-11T03:29:10.772Z,89.8
2019-04-11T03:30:19.731Z,89.1
2019-04-11T03:34:58.080Z,89.1
2019-04-11T03:36:59.735Z,89.3
2019-04-11T03:38:03.391Z,91.4
2019-04-11T03:38:52.767Z,92.1
2019-04-11T03:39:37.354Z,91.7
2019-04-11T03:40:34.753Z,91.7
2019-04-11T03:41:26.581Z,91.7
2019-04-11T03:42:25.884Z,90.5
2019-04-11T03:43:11.683Z,90.5
2019-04-11T03:44:03.439Z,88.9
2019-04-11T03:44:42.269Z,89.1
2019-04-11T03:46:29.002Z,87.7
2019-04-11T03:47:15.967Z,87.7
2019-04-11T03:48:12.202Z,87.9
2019-04-11T03:48:55.518Z,87
2019-04-11T03:49:52.931Z,87
2019-04-11T03:50:27.892Z,85.1
2019-04-11T03:51:05.018Z,85.1
2019-04-11T03:52:12.255Z,85.4
2019-04-11T03:53:12.241Z,85.6
2019-04-11T03:54:03.133Z,85.1
2019-04-11T03:55:12.624Z,84.2
2019-04-11T03:56:05.367Z,82.6
2019-04-11T03:57:09.766Z,82.8
2019-04-11T03:58:09.224Z,81.9
2019-04-11T03:59:14.688Z,82.3
2019-04-11T04:00:06.705Z,83.7
2019-04-11T04:01:14.091Z,84
2019-04-11T04:02:12.327Z,84
2019-04-11T04:03:06.573Z,84.9
2019-04-11T04:04:03.718Z,85.4
2019-04-11T04:05:10.805Z,86.1
2019-04-11T04:06:09.465Z,86.1
2019-04-11T04:07:11.060Z,86.3
2019-04-11T04:08:06.390Z,86.8
2019-04-11T04:09:04.345Z,86.8
2019-04-11T04:10:15.372Z,85.8
2019-04-11T04:11:08.973Z,86.8
2019-04-11T04:12:07.636Z,86.8
2019-04-11T04:13:18.984Z,85.8
2019-04-11T04:14:04.843Z,85.8
2019-04-11T04:15:39.368Z,86.5
2019-04-11T04:16:43.093Z,85.8
2019-04-11T04:17:11.284Z,87.2
2019-04-11T04:18:10.083Z,87.2
2019-04-11T04:19:05.648Z,88.2
2019-04-11T04:20:05.407Z,88.2
2019-04-11T04:21:11.037Z,87.7
2019-04-11T04:22:07.862Z,87.7
2019-04-11T04:23:11.974Z,85.6
2019-04-11T04:24:06.370Z,86.1
2019-04-11T04:25:04.691Z,86.3
2019-04-11T04:26:12.116Z,85.4
2019-04-11T04:27:10.749Z,85.4
2019-04-11T04:28:11.703Z,85.1
2019-04-11T04:29:04.795Z,85.1
2019-04-11T04:30:06.337Z,86.3
2019-04-11T04:31:11.366Z,85.8
2019-04-11T04:32:08.741Z,86.8
2019-04-11T04:33:10.897Z,85.4
2019-04-11T04:34:04.106Z,85.1
2019-04-11T04:35:21.463Z,84.7
2019-04-11T04:36:15.489Z,82.8
2019-04-11T04:37:08.421Z,81.2
2019-04-11T04:38:07.498Z,81.4
2019-04-11T04:39:06.053Z,81.9
2019-04-11T04:41:19.594Z,81.9
2019-04-11T04:41:47.560Z,81.4
2019-04-11T04:42:38.850Z,80.7
2019-04-11T04:43:12.087Z,80
2019-04-11T04:44:09.122Z,79.5
2019-04-11T04:45:14.525Z,80
2019-04-11T04:47:13.525Z,80.2
2019-04-11T04:47:47.596Z,81.2
2019-04-11T04:48:24.264Z,82.6
2019-04-11T04:49:08.815Z,82.6
2019-04-11T04:50:06.722Z,84.7
2019-04-11T04:51:17.658Z,85.6
2019-04-11T04:52:14.269Z,86.5
2019-04-11T04:53:08.877Z,86.8
2019-04-11T04:54:06.122Z,87.5
2019-04-11T04:55:06.418Z,87.2
2019-04-11T04:56:03.600Z,88.2
2019-04-11T04:57:12.835Z,88.6
2019-04-11T04:58:05.167Z,87.9
2019-04-11T04:59:14.571Z,88.6
2019-04-11T05:00:09.289Z,88.6
2019-04-11T05:01:07.260Z,89.6
2019-04-11T05:02:12.735Z,89.3
2019-04-11T05:03:07.594Z,89.1
2019-04-11T05:04:09.565Z,88.9
2019-04-11T05:05:06.597Z,88.4
2019-04-11T05:06:04.619Z,88.4
2019-04-11T05:07:05.478Z,88.4
2019-04-11T05:08:03.287Z,88.2
2019-04-11T05:09:04.580Z,87.9
2019-04-11T05:10:09.174Z,88.9
2019-04-11T05:11:04.884Z,89.1
2019-04-11T05:12:05.569Z,89.6
2019-04-11T05:13:07.878Z,89.6
2019-04-11T05:14:07.408Z,89.8
2019-04-11T05:15:04.045Z,88.9
2019-04-11T05:16:18.300Z,89.8
2019-04-11T05:17:03.764Z,89.1
2019-04-11T05:18:06.354Z,89.1
2019-04-11T05:19:04.714Z,89.3
2019-04-11T05:20:05.222Z,89.3
2019-04-11T05:21:03.572Z,89.1
2019-04-11T05:22:03.515Z,88.6
2019-04-11T05:23:04.562Z,89.3
2019-04-11T05:24:04.284Z,89.6
2019-04-11T05:25:06.960Z,89.3
2019-04-11T05:26:03.728Z,90.3
2019-04-11T05:27:02.722Z,90.3
2019-04-11T05:28:04.545Z,89.6
2019-04-11T05:29:03.075Z,89.3
2019-04-11T05:30:03.588Z,89.6
2019-04-11T05:31:03.346Z,89.8
2019-04-11T05:32:03.341Z,88.2
2019-04-11T05:33:04.213Z,88.2
2019-04-11T05:34:03.713Z,87.7
2019-04-11T05:35:05.019Z,87.2
2019-04-11T05:36:04.140Z,88.2
2019-04-11T05:37:02.572Z,89.1
2019-04-11T05:38:03.053Z,89.1
2019-04-11T05:39:03.367Z,88.6
2019-04-11T05:40:03.358Z,87.9
2019-04-11T05:41:04.419Z,88.4
2019-04-11T05:42:03.438Z,88.6
2019-04-11T05:43:04.093Z,88.2
2019-04-11T05:44:11.180Z,88.4
2019-04-11T05:45:03.544Z,88.4
2019-04-11T05:46:56.124Z,87.5
2019-04-11T05:47:07.112Z,85.8
2019-04-11T05:48:03.487Z,85.8
2019-04-11T05:49:05.572Z,85.8
2019-04-11T05:50:14.144Z,86.5
2019-04-11T05:51:04.766Z,86.5
2019-04-11T05:52:04.194Z,87.2
2019-04-11T05:53:05.891Z,86.3
2019-04-11T05:54:11.920Z,87.2
2019-04-11T05:55:03.445Z,86.5
2019-04-11T05:56:03.942Z,86.3
2019-04-11T05:57:03.519Z,86.3
2019-04-11T05:58:16.065Z,87
2019-04-11T05:59:03.496Z,87
2019-04-11T06:00:03.746Z,87
2019-04-11T06:01:03.692Z,85.4
2019-04-11T06:02:09.378Z,85.4
2019-04-11T06:03:04.095Z,85.4
2019-04-11T06:04:03.137Z,84.9
2019-04-11T06:05:03.678Z,85.4
2019-04-11T06:06:05.005Z,84.9
2019-04-11T06:07:03.539Z,85.6
2019-04-11T06:08:06.142Z,84.7
2019-04-11T06:09:04.226Z,84.7
2019-04-11T06:10:14.410Z,83.3
2019-04-11T06:11:06.554Z,82.1
2019-04-11T06:12:03.540Z,82.8
2019-04-11T06:13:02.899Z,82.8
2019-04-11T06:14:07.610Z,83.5
2019-04-11T06:15:04.164Z,83.3
2019-04-11T06:16:04.829Z,84
2019-04-11T06:17:03.170Z,83.3
2019-04-11T06:18:03.419Z,83.5
2019-04-11T06:19:04.135Z,84
2019-04-11T06:20:04.292Z,84
2019-04-11T06:21:04.195Z,87
2019-04-11T06:22:04.837Z,87
2019-04-11T06:23:05.167Z,88.4
2019-04-11T06:24:03.790Z,88.4
2019-04-11T06:25:11.386Z,87.9
2019-04-11T06:26:03.357Z,88.6
2019-04-11T06:27:04.276Z,88.4
2019-04-11T06:28:04.322Z,88.2
2019-04-11T06:29:29.338Z,88.2
2019-04-11T06:30:03.656Z,87.5
2019-04-11T06:31:07.578Z,88.2
2019-04-11T06:32:03.763Z,90
2019-04-11T06:33:04.828Z,90
2019-04-11T06:34:03.280Z,93.3
2019-04-11T06:35:04.199Z,93.3
2019-04-11T06:36:04.480Z,93.1
2019-04-11T06:37:03.814Z,92.8
2019-04-11T06:38:03.009Z,94
2019-04-11T06:39:03.210Z,93.5
2019-04-11T06:40:04.385Z,93.5
2019-04-11T06:41:03.171Z,92.8
2019-04-11T06:42:07.759Z,92.4
2019-04-11T06:43:03.775Z,92.8
2019-04-11T06:44:02.802Z,92.8
2019-04-11T06:45:04.278Z,92.6
2019-04-11T06:46:03.537Z,92.4
2019-04-11T06:47:05.608Z,92.6
2019-04-11T06:48:03.241Z,92.6
2019-04-11T06:49:04.691Z,92.6
2019-04-11T06:50:03.889Z,92.6
2019-04-11T06:51:04.097Z,91.7
2019-04-11T06:52:04.541Z,92.8
2019-04-11T06:53:04.700Z,92.8
2019-04-11T06:54:03.042Z,92.6
2019-04-11T06:55:04.778Z,94
2019-04-11T06:56:03.803Z,93.8
2019-04-11T06:57:03.661Z,93.3
2019-04-11T06:58:03.709Z,93.1
2019-04-11T06:59:04.157Z,93.8
2019-04-11T07:00:03.205Z,94
2019-04-11T07:01:03.734Z,94
2019-04-11T07:02:25.060Z,96.1
2019-04-11T07:03:03.780Z,96.3
2019-04-11T07:04:03.283Z,96.1
2019-04-11T07:05:04.806Z,95.6
2019-04-11T07:06:03.111Z,97.7
2019-04-11T07:07:02.993Z,98
2019-04-11T07:08:03.112Z,98
2019-04-11T07:09:03.528Z,98.7
2019-04-11T07:10:04.390Z,98.2
2019-04-11T07:11:03.722Z,98.7
2019-04-11T07:12:03.746Z,97.7
2019-04-11T07:13:03.701Z,97.3
2019-04-11T07:14:04.175Z,96.6
2019-04-11T07:15:04.751Z,97.3
2019-04-11T07:16:04.914Z,96.1
2019-04-11T07:17:13.762Z,96.1
2019-04-11T07:18:07.825Z,95.2
2019-04-11T07:19:05.028Z,95.2
2019-04-11T07:20:02.871Z,95.2
2019-04-11T07:21:03.301Z,92.4
2019-04-11T07:22:04.462Z,91.4
2019-04-11T07:23:03.953Z,92.1
2019-04-11T07:24:03.522Z,92.6
2019-04-11T07:25:04.146Z,93.8
2019-04-11T07:26:04.697Z,92.8
2019-04-11T07:27:03.328Z,92.8
2019-04-11T07:28:03.931Z,92.8
2019-04-11T07:29:02.701Z,93.8
2019-04-11T07:30:03.461Z,95.4
2019-04-11T07:31:04.717Z,95.9
2019-04-11T07:32:05.174Z,95.9
2019-04-11T07:33:04.135Z,93.3
2019-04-11T07:34:03.067Z,92.1
2019-04-11T07:35:05.462Z,92.1
2019-04-11T07:36:04.055Z,91.9
2019-04-11T07:37:04.711Z,91.9
2019-04-11T07:38:03.373Z,90.7
2019-04-11T07:39:03.476Z,92.6
2019-04-11T07:40:07.606Z,93.5
2019-04-11T07:41:04.411Z,93.5
2019-04-11T07:42:03.286Z,94.5
2019-04-11T07:43:18.857Z,94.5
2019-04-11T07:44:04.494Z,94.9
2019-04-11T07:45:04.433Z,94.9
2019-04-11T07:46:02.988Z,95.4
2019-04-11T07:47:27.651Z,95.6
2019-04-11T07:48:03.432Z,95.6
2019-04-11T07:49:04.034Z,95.9
2019-04-11T07:50:03.468Z,96.3
2019-04-11T07:51:03.398Z,96.8
2019-04-11T07:52:03.184Z,96.6
2019-04-11T07:53:03.378Z,97.5
2019-04-11T07:54:02.916Z,96.3
2019-04-11T07:55:04.826Z,95.9
2019-04-11T07:56:05.290Z,95.9
2019-04-11T07:57:04.433Z,96.1
2019-04-11T07:58:04.529Z,97.7
2019-04-11T07:59:03.261Z,97.3
2019-04-11T08:00:04.069Z,96.6
2019-04-11T08:01:03.817Z,95.9
2019-04-11T08:02:03.944Z,95.4
2019-04-11T08:03:04.347Z,95.4
2019-04-11T08:04:04.002Z,95.2
2019-04-11T08:05:04.664Z,95.4
2019-04-11T08:06:03.443Z,94.7
2019-04-11T08:07:04.618Z,94.9
2019-04-11T08:08:10.743Z,95.9
2019-04-11T08:09:03.403Z,95.9
2019-04-11T08:10:03.429Z,95.9
2019-04-11T08:11:02.894Z,95.6
2019-04-11T08:12:04.747Z,95.6
2019-04-11T08:13:03.966Z,94.7
2019-04-11T08:14:02.705Z,96.8
2019-04-11T08:15:03.073Z,95.6
2019-04-11T08:16:04.579Z,95.6
2019-04-11T08:17:04.025Z,95.6
2019-04-11T08:18:04.253Z,95.6
2019-04-11T08:19:03.857Z,96.1
2019-04-11T08:20:05.181Z,96.1
2019-04-11T08:21:04.025Z,94
2019-04-11T08:22:03.633Z,93.5
2019-04-11T08:23:03.809Z,92.1
2019-04-11T08:24:04.639Z,92.1
2019-04-11T08:25:03.091Z,91.9
2019-04-11T08:26:04.209Z,92.1
2019-04-11T08:27:03.531Z,92.1
2019-04-11T08:28:14.181Z,92.6
2019-04-11T08:29:16.204Z,91.9
2019-04-11T08:30:03.522Z,90.3
2019-04-11T08:31:03.758Z,89.1
2019-04-11T08:32:03.236Z,88.4
2019-04-11T08:33:04.612Z,88.9
2019-04-11T08:34:03.009Z,88.9
2019-04-11T08:35:04.219Z,89.3
2019-04-11T08:36:02.960Z,89.6
2019-04-11T08:37:03.592Z,90
2019-04-11T08:38:04.763Z,90
2019-04-11T08:39:04.997Z,89.6
2019-04-11T08:40:04.150Z,89.6
2019-04-11T08:41:03.313Z,89.1
2019-04-11T08:42:03.437Z,89.3
2019-04-11T08:43:02.950Z,89.8
2019-04-11T08:44:03.865Z,90
2019-04-11T08:45:04.282Z,91.7
2019-04-11T08:46:04.869Z,91
2019-04-11T08:47:04.653Z,91.7
2019-04-11T08:48:04.708Z,91
2019-04-11T08:49:03.909Z,90.5
2019-04-11T08:50:04.132Z,91.7
2019-04-11T08:51:03.517Z,91.7
2019-04-11T08:52:03.965Z,91.7
2019-04-11T08:53:04.784Z,91
2019-04-11T08:54:03.080Z,91.2
2019-04-11T08:55:04.441Z,92.1
2019-04-11T08:56:07.185Z,93.1
2019-04-11T08:57:03.492Z,92.8
2019-04-11T08:58:04.616Z,91.7
2019-04-11T08:59:03.072Z,91.7
2019-04-11T09:00:04.418Z,91.9
2019-04-11T09:01:03.638Z,93.3
2019-04-11T09:02:04.866Z,93.3
2019-04-11T09:03:02.699Z,92.6
2019-04-11T09:04:15.570Z,92.6
2019-04-11T09:05:20.768Z,91.7
2019-04-11T09:06:04.560Z,91.9
2019-04-11T09:07:03.778Z,92.4
2019-04-11T09:08:03.610Z,91.9
2019-04-11T09:09:05.075Z,92.1
2019-04-11T09:10:04.459Z,93.5
2019-04-11T09:11:02.978Z,93.5
2019-04-11T09:12:04.657Z,94.5
2019-04-11T09:13:03.329Z,94
2019-04-11T09:14:04.125Z,91.9
2019-04-11T09:15:04.634Z,91.2
2019-04-11T09:16:03.694Z,91.9
2019-04-11T09:17:04.057Z,92.6
2019-04-11T09:18:15.419Z,94.7
2019-04-11T09:19:03.823Z,94.9
2019-04-11T09:20:03.776Z,94.9
2019-04-11T09:21:04.487Z,95.4
2019-04-11T09:22:03.634Z,95.4
2019-04-11T09:23:03.993Z,95.6
2019-04-11T09:24:03.148Z,95.2
2019-04-11T09:25:03.636Z,95.9
2019-04-11T09:26:03.835Z,96.6
2019-04-11T09:27:03.166Z,96.6
2019-04-11T09:28:03.097Z,96.1
2019-04-11T09:29:04.191Z,96.6
2019-04-11T09:30:04.096Z,97.5
2019-04-11T09:31:15.345Z,98.2
2019-04-11T09:32:02.876Z,98.7
2019-04-11T09:33:04.452Z,98.7
2019-04-11T09:34:03.979Z,98.9
2019-04-11T09:35:03.254Z,98.9
2019-04-11T09:36:04.034Z,98.4
2019-04-11T09:37:04.080Z,98
2019-04-11T09:38:04.486Z,98.7
2019-04-11T09:39:04.770Z,98.7
2019-04-11T09:40:04.025Z,97.3
2019-04-11T09:41:04.216Z,97.5
2019-04-11T09:42:03.262Z,97.5
2019-04-11T09:43:04.062Z,96.1
2019-04-11T09:44:04.598Z,96.8
2019-04-11T09:45:03.816Z,95.9
2019-04-11T09:46:03.965Z,95.9
2019-04-11T09:47:03.666Z,95.2
2019-04-11T09:48:21.307Z,95.9
2019-04-11T09:49:04.556Z,96.3
2019-04-11T09:50:04.556Z,94.9
2019-04-11T09:51:03.253Z,94.2
2019-04-11T09:52:03.102Z,94
2019-04-11T09:53:03.853Z,94
2019-04-11T09:54:03.781Z,94.2
2019-04-11T09:55:04.692Z,93.8
2019-04-11T09:56:02.988Z,93.5
2019-04-11T09:57:04.685Z,93.5
2019-04-11T09:58:03.217Z,94.2
2019-04-11T09:59:03.030Z,94.7
2019-04-11T10:00:04.079Z,94.9
2019-04-11T10:01:03.991Z,93.5
2019-04-11T10:02:02.906Z,92.4
2019-04-11T10:03:03.238Z,93.1
2019-04-11T10:04:03.884Z,93.1
2019-04-11T10:05:03.842Z,93.1
2019-04-11T10:06:03.268Z,94.2
2019-04-11T10:07:03.649Z,93.8
2019-04-11T10:08:03.291Z,94.7
2019-04-11T10:09:03.996Z,95.4
2019-04-11T10:10:04.912Z,95.4
2019-04-11T10:11:03.959Z,94
2019-04-11T10:12:02.793Z,92.8
2019-04-11T10:13:02.920Z,94.7
2019-04-11T10:14:02.982Z,95.2
2019-04-11T10:15:03.343Z,97.3
2019-04-11T10:16:04.216Z,97
2019-04-11T10:17:04.687Z,97
2019-04-11T10:18:03.364Z,95.4
2019-04-11T10:19:03.693Z,94.9
2019-04-11T10:20:04.926Z,96.1
2019-04-11T10:21:03.270Z,96.1
2019-04-11T10:22:03.081Z,97.5
2019-04-11T10:23:05.158Z,100.1
2019-04-11T10:24:03.067Z,100.1
2019-04-11T10:25:03.529Z,100.1
2019-04-11T10:26:03.801Z,99.6
2019-04-11T10:27:02.915Z,100.8
2019-04-11T10:28:03.151Z,100.8
2019-04-11T10:29:04.565Z,102.9
2019-04-11T10:30:04.631Z,102.9
2019-04-11T10:31:04.521Z,103.3
2019-04-11T10:32:03.506Z,103.3
2019-04-11T10:33:04.735Z,104.5
2019-04-11T10:34:06.337Z,105.9
2019-04-11T10:35:03.296Z,106.6
2019-04-11T10:36:03.308Z,106.4
2019-04-11T10:37:03.831Z,107.5
2019-04-11T10:38:03.021Z,107.5
2019-04-11T10:39:03.146Z,107.5
2019-04-11T10:40:04.170Z,107.3
2019-04-11T10:41:04.403Z,107.3
2019-04-11T10:42:04.551Z,107.1
2019-04-11T10:43:04.542Z,108.9
2019-04-11T10:44:03.746Z,109.2
2019-04-11T10:45:04.878Z,109.2
2019-04-11T10:46:03.422Z,109.2
2019-04-11T10:47:10.124Z,110.1
2019-04-11T10:48:03.595Z,110.1
2019-04-11T10:49:03.886Z,110.6
2019-04-11T10:50:03.726Z,110.6
2019-04-11T10:51:04.790Z,109.9
2019-04-11T10:52:02.888Z,110.8
2019-04-11T10:53:03.201Z,110.8
2019-04-11T10:54:08.731Z,111.7
2019-04-11T10:55:03.536Z,112.4
2019-04-11T10:56:04.345Z,112.4
2019-04-11T10:57:03.712Z,112.9
2019-04-11T10:58:05.018Z,113.1
2019-04-11T10:59:05.218Z,112.4
2019-04-11T11:00:03.371Z,112.7
2019-04-11T11:01:04.166Z,113.8
2019-04-11T11:02:04.759Z,114.3
2019-04-11T11:03:04.294Z,114.3
2019-04-11T11:04:03.597Z,113.8
2019-04-11T11:05:03.718Z,113.8
2019-04-11T11:06:03.563Z,113.4
2019-04-11T11:07:04.622Z,112.2
2019-04-11T11:08:03.177Z,111.3
2019-04-11T11:09:04.123Z,111.3
2019-04-11T11:10:03.433Z,109.2
2019-04-11T11:11:04.109Z,110.8
2019-04-11T11:12:05.184Z,111.3
2019-04-11T11:13:03.667Z,110.1
2019-04-11T11:14:03.050Z,111.5
2019-04-11T11:15:03.434Z,110.6
2019-04-11T11:16:08.984Z,110.6
2019-04-11T11:17:04.232Z,110.3
2019-04-11T11:19:58.235Z,110.3
2019-04-11T11:20:19.488Z,109.2
2019-04-11T11:20:39.789Z,109.2
2019-04-11T11:21:07.694Z,107.1
2019-04-11T11:22:05.467Z,107.1
2019-04-11T11:23:14.142Z,103.6
2019-04-11T11:24:11.871Z,103.8
2019-04-11T11:25:03.435Z,102.4
2019-04-11T11:26:03.068Z,101.5
2019-04-11T11:27:05.901Z,100.5
2019-04-11T11:28:03.902Z,98.9
2019-04-11T11:29:18.792Z,98.4
2019-04-11T11:30:06.403Z,97.5
2019-04-11T11:31:03.478Z,96.6
2019-04-11T11:32:03.351Z,95.4
2019-04-11T11:33:03.950Z,95.4
2019-04-11T11:34:05.034Z,93.8
2019-04-11T11:35:03.647Z,94.2
2019-04-11T11:36:11.240Z,94
2019-04-11T11:37:02.871Z,94.2
2019-04-11T11:38:04.168Z,94.5
2019-04-11T11:39:02.807Z,93.5
2019-04-11T11:40:18.944Z,93.5
2019-04-11T11:41:04.139Z,96.3
2019-04-11T11:42:04.325Z,95.2
2019-04-11T11:43:03.709Z,92.8
2019-04-11T11:44:03.656Z,92.8
2019-04-11T11:45:05.760Z,92.8
2019-04-11T11:46:03.985Z,92.8
2019-04-11T11:47:08.072Z,93.3
2019-04-11T11:48:02.660Z,93.5
2019-04-11T11:49:04.073Z,92.8
2019-04-11T11:50:21.408Z,92.6
2019-04-11T11:51:03.591Z,94.2
2019-04-11T11:52:03.747Z,93.8
2019-04-11T11:53:14.873Z,94
2019-04-11T11:54:03.315Z,92.4
2019-04-11T11:55:04.286Z,91.9
2019-04-11T11:56:03.526Z,91
2019-04-11T11:57:04.787Z,91
2019-04-11T11:58:03.649Z,89.6
2019-04-11T11:59:03.958Z,89.3
2019-04-11T12:00:03.582Z,89.1
2019-04-11T12:01:09.699Z,88.4
2019-04-11T12:02:04.675Z,87.7
2019-04-11T12:03:03.856Z,87.2
2019-04-11T12:04:05.290Z,87.5
2019-04-11T12:05:18.621Z,88.2
2019-04-11T12:06:03.510Z,87.7
2019-04-11T12:07:08.724Z,88.4
2019-04-11T12:08:12.192Z,88.4
2019-04-11T12:09:04.650Z,89.8
2019-04-11T12:10:03.356Z,89.3
2019-04-11T12:11:04.202Z,89.1
2019-04-11T12:12:04.516Z,89.3
2019-04-11T12:13:14.796Z,90
2019-04-11T12:14:04.284Z,89.1
2019-04-11T12:15:03.703Z,89.6
2019-04-11T12:16:03.961Z,89.6
2019-04-11T12:17:08.625Z,89.6
2019-04-11T12:18:11.164Z,90.7
2019-04-11T12:19:03.001Z,91.9
2019-04-11T12:20:16.945Z,92.4
2019-04-11T12:21:03.556Z,92.4
2019-04-11T12:22:04.502Z,94.2
2019-04-11T12:23:04.838Z,96.1
2019-04-11T12:24:09.832Z,96.3
2019-04-11T12:25:03.407Z,97.7
2019-04-11T12:26:03.706Z,98.7
2019-04-11T12:27:04.723Z,97.5
2019-04-11T12:28:15.408Z,98.4
2019-04-11T12:29:03.245Z,97.3
2019-04-11T12:30:11.051Z,98.2
2019-04-11T12:31:05.652Z,99.1
2019-04-11T12:32:04.246Z,98.9
2019-04-11T12:33:03.637Z,99.6
2019-04-11T12:34:03.103Z,99.8
2019-04-11T12:35:04.293Z,98.7
2019-04-11T12:36:03.725Z,98.7
2019-04-11T12:37:04.529Z,97.3
2019-04-11T12:38:03.677Z,98
2019-04-11T12:39:03.376Z,98
2019-04-11T12:40:03.137Z,100.3
2019-04-11T12:41:03.538Z,100.3
2019-04-11T12:42:03.052Z,99.6
2019-04-11T12:43:03.277Z,99.6
2019-04-11T12:44:03.136Z,98.9
2019-04-11T12:45:03.486Z,98.9
2019-04-11T12:46:03.172Z,99.4
2019-04-11T12:47:03.223Z,98.9
2019-04-11T12:48:02.997Z,98.9
2019-04-11T12:49:03.416Z,99.8
2019-04-11T12:50:03.116Z,100.3
2019-04-11T12:51:02.977Z,98.4
2019-04-11T12:52:03.091Z,98.4
2019-04-11T12:53:03.586Z,98.9
2019-04-11T12:54:02.659Z,99.4
2019-04-11T12:55:03.048Z,99.4
2019-04-11T12:56:03.011Z,99.8
2019-04-11T12:57:03.836Z,99.4
2019-04-11T12:58:03.038Z,101.5
2019-04-11T12:59:03.027Z,101.5
2019-04-11T13:00:02.935Z,101.9
2019-04-11T13:01:03.825Z,101.5
2019-04-11T13:02:03.639Z,101.7
2019-04-11T13:03:03.102Z,101.7
2019-04-11T13:04:03.573Z,101.7
2019-04-11T13:05:03.653Z,101.7
2019-04-11T13:06:03.766Z,101.5
2019-04-11T13:07:03.644Z,100.3
2019-04-11T13:08:03.271Z,99.1
2019-04-11T13:09:03.192Z,98
2019-04-11T13:10:03.651Z,99.6
2019-04-11T13:11:03.348Z,98.7
2019-04-11T13:12:03.507Z,98.2
2019-04-11T13:13:03.487Z,98
2019-04-11T13:14:03.496Z,96.8
2019-04-11T13:15:03.921Z,96.6
2019-04-11T13:16:13.117Z,96.6
2019-04-11T13:17:03.448Z,97
2019-04-11T13:18:03.189Z,97
2019-04-11T13:19:03.217Z,94.7
2019-04-11T13:20:05.519Z,94.2
2019-04-11T13:21:03.213Z,95.2
2019-04-11T13:22:03.195Z,95.2
2019-04-11T13:23:03.163Z,95.2
2019-04-11T13:24:02.932Z,95.2